Time;durP1;ratioP1;P1;durP2;ratioP2;P2;SDS_P1;SDS_P2;PMS_P1;PMS_P2;Temp;Humidity;BMP_temperature;BMP_pressure;BME280_temperature;BME280_humidity;BME280_pressure;Samples;Min_cycle;Max_cycle;Signal;HPM_P1;HPM_P2
2023/11/19 00:01:01;;;;;;;1.30;1.20;;;13.20;99.90;;;;;;4977446;28;20441;-73
2023/11/19 00:03:28;;;;;;;1.07;0.90;;;13.20;99.90;;;;;;4977351;28;20481;-72
2023/11/19 00:05:55;;;;;;;1.57;1.10;;;13.20;99.90;;;;;;4977718;28;20453;-72
2023/11/19 00:08:24;;;;;;;1.40;1.13;;;13.30;99.90;;;;;;4977592;28;20449;-72
2023/11/19 00:10:51;;;;;;;2.23;1.00;;;13.30;99.90;;;;;;4975883;28;20877;-73
2023/11/19 00:13:19;;;;;;;1.47;1.00;;;13.30;99.90;;;;;;4977326;28;20441;-73
2023/11/19 00:15:47;;;;;;;1.47;1.37;;;13.30;99.90;;;;;;4977213;28;20472;-73
2023/11/19 00:18:14;;;;;;;1.10;1.10;;;13.30;99.90;;;;;;4976826;28;21025;-73
2023/11/19 00:20:41;;;;;;;5.90;1.40;;;13.40;99.90;;;;;;4976982;28;21009;-73
2023/11/19 00:23:08;;;;;;;0.90;0.90;;;13.40;99.90;;;;;;4977356;28;20504;-73
2023/11/19 00:25:34;;;;;;;1.10;0.97;;;13.50;99.90;;;;;;4976811;28;20449;-72
2023/11/19 00:28:01;;;;;;;1.20;1.10;;;13.50;99.90;;;;;;4976399;28;20951;-73
2023/11/19 00:30:31;;;;;;;5.23;1.07;;;13.50;99.90;;;;;;4976955;28;20497;-73
2023/11/19 00:32:57;;;;;;;1.13;1.03;;;13.50;99.90;;;;;;4977040;28;20449;-73
2023/11/19 00:35:24;;;;;;;1.67;1.03;;;13.50;99.90;;;;;;4976328;28;20449;-72
2023/11/19 00:37:53;;;;;;;1.07;1.00;;;13.60;99.90;;;;;;4976487;28;20452;-73
2023/11/19 00:40:22;;;;;;;2.03;0.90;;;13.60;99.90;;;;;;4976281;28;21027;-73
2023/11/19 00:42:51;;;;;;;1.53;0.73;;;13.60;99.90;;;;;;4976282;28;20449;-73
2023/11/19 00:45:19;;;;;;;3.17;1.10;;;13.50;99.90;;;;;;4978176;28;20449;-73
2023/11/19 00:47:47;;;;;;;0.50;0.50;;;13.60;99.90;;;;;;4978155;28;20508;-73
2023/11/19 00:50:15;;;;;;;0.63;0.60;;;13.60;99.90;;;;;;4977918;28;20489;-72
2023/11/19 00:52:43;;;;;;;0.57;0.53;;;13.60;99.90;;;;;;4977586;28;20546;-72
2023/11/19 00:55:11;;;;;;;2.70;0.70;;;13.60;99.90;;;;;;4977186;28;20449;-73
2023/11/19 00:57:40;;;;;;;1.20;0.73;;;13.60;99.90;;;;;;4976814;28;20457;-73
2023/11/19 01:00:17;;;;;;;1.10;0.80;;;13.60;99.90;;;;;;4975875;28;20461;-73
2023/11/19 01:02:45;;;;;;;0.80;0.60;;;13.60;99.90;;;;;;4975966;28;20429;-73
2023/11/19 01:05:14;;;;;;;0.77;0.67;;;13.60;99.90;;;;;;4977017;28;20446;-73
2023/11/19 01:07:43;;;;;;;1.87;0.80;;;13.60;99.90;;;;;;4983535;28;20449;-73
2023/11/19 01:10:11;;;;;;;0.90;0.90;;;13.60;99.90;;;;;;4985279;28;20544;-73
2023/11/19 01:12:38;;;;;;;1.10;0.77;;;13.60;99.90;;;;;;4980824;28;20496;-73
2023/11/19 01:15:06;;;;;;;1.43;0.80;;;13.70;99.90;;;;;;4980687;28;20461;-73
2023/11/19 01:17:33;;;;;;;2.20;0.67;;;13.70;99.90;;;;;;4977497;28;20446;-73
2023/11/19 01:20:00;;;;;;;1.53;0.90;;;13.70;99.90;;;;;;4976975;28;20476;-73
2023/11/19 01:22:30;;;;;;;0.60;0.60;;;13.70;99.90;;;;;;4976431;28;20445;-73
2023/11/19 01:24:58;;;;;;;2.57;1.00;;;13.70;99.90;;;;;;4976323;28;20449;-73
2023/11/19 01:27:24;;;;;;;1.53;0.80;;;13.70;99.90;;;;;;4975990;28;20544;-73
2023/11/19 01:29:51;;;;;;;2.20;0.93;;;13.70;99.90;;;;;;4975974;28;20469;-73
2023/11/19 01:32:18;;;;;;;1.07;0.80;;;13.70;99.90;;;;;;4976630;28;20524;-73
2023/11/19 01:34:44;;;;;;;2.33;1.10;;;13.70;99.90;;;;;;4976203;28;20449;-73
2023/11/19 01:37:12;;;;;;;0.80;0.80;;;13.70;99.90;;;;;;4976653;28;20950;-74
2023/11/19 01:39:40;;;;;;;1.43;0.90;;;13.60;99.90;;;;;;4975499;28;20480;-73
2023/11/19 01:42:07;;;;;;;1.90;1.20;;;13.70;99.90;;;;;;4976103;28;20450;-73
2023/11/19 01:44:34;;;;;;;3.33;1.20;;;13.70;99.90;;;;;;4975093;28;20480;-73
2023/11/19 01:47:03;;;;;;;2.63;1.40;;;13.70;99.90;;;;;;4976028;28;20944;-73
2023/11/19 01:49:32;;;;;;;3.30;1.20;;;13.70;99.90;;;;;;4974610;28;20505;-73
2023/11/19 01:52:01;;;;;;;7.27;2.03;;;13.70;99.90;;;;;;4975820;28;20488;-73
2023/11/19 01:54:29;;;;;;;5.07;1.40;;;13.70;99.90;;;;;;4974081;28;20955;-73
2023/11/19 01:56:57;;;;;;;1.73;1.40;;;13.80;99.90;;;;;;4976139;28;20488;-73
2023/11/19 01:59:27;;;;;;;5.53;1.87;;;13.80;99.90;;;;;;4976007;28;20473;-73
2023/11/19 02:01:54;;;;;;;3.90;2.03;;;13.80;99.90;;;;;;4975671;28;20445;-73
2023/11/19 02:04:22;;;;;;;5.87;1.87;;;13.90;99.90;;;;;;4975932;28;20440;-73
2023/11/19 02:06:52;;;;;;;4.17;1.60;;;13.90;99.90;;;;;;4975463;28;20560;-73
2023/11/19 02:09:19;;;;;;;6.90;2.00;;;13.90;99.90;;;;;;4958749;28;20465;-73
2023/11/19 02:11:51;;;;;;;4.97;2.07;;;13.90;99.90;;;;;;4975151;28;20477;-73
2023/11/19 02:14:25;;;;;;;3.90;1.77;;;14.00;99.90;;;;;;4975474;28;20540;-73
2023/11/19 02:16:54;;;;;;;3.30;2.57;;;14.00;99.90;;;;;;4975288;28;20453;-73
2023/11/19 02:19:21;;;;;;;5.10;2.47;;;14.00;99.90;;;;;;4975211;28;20495;-73
2023/11/19 02:21:48;;;;;;;4.40;1.93;;;14.00;99.90;;;;;;4974910;28;20445;-73
2023/11/19 02:24:18;;;;;;;5.37;2.00;;;14.00;99.90;;;;;;4975177;28;20517;-73
2023/11/19 02:26:53;;;;;;;6.73;2.20;;;14.10;99.90;;;;;;4975258;28;20445;-73
2023/11/19 02:29:22;;;;;;;6.77;2.00;;;14.00;99.90;;;;;;4973735;28;20469;-73
2023/11/19 02:31:48;;;;;;;7.60;2.20;;;14.00;99.90;;;;;;4974982;28;20510;-74
2023/11/19 02:34:16;;;;;;;12.17;2.60;;;14.00;99.90;;;;;;4974775;28;20453;-73
2023/11/19 02:36:43;;;;;;;6.93;2.77;;;14.00;99.90;;;;;;4975155;28;20868;-73
2023/11/19 02:39:12;;;;;;;5.30;1.93;;;14.00;99.90;;;;;;4977648;28;20479;-73
2023/11/19 02:41:39;;;;;;;9.57;2.63;;;14.00;99.90;;;;;;4978866;28;20469;-73
2023/11/19 02:44:07;;;;;;;7.80;2.13;;;14.00;99.90;;;;;;4978429;28;20445;-73
2023/11/19 02:46:35;;;;;;;3.03;2.10;;;14.00;99.90;;;;;;4978256;28;20987;-73
2023/11/19 02:49:02;;;;;;;13.40;3.30;;;14.00;99.90;;;;;;4978459;28;20465;-73
2023/11/19 02:51:27;;;;;;;4.60;2.17;;;14.00;99.90;;;;;;4978588;28;20485;-73
2023/11/19 02:53:54;;;;;;;13.03;2.70;;;14.00;99.90;;;;;;4978631;28;20800;-73
2023/11/19 02:56:25;;;;;;;7.57;2.20;;;14.00;99.90;;;;;;4978109;28;20225;-73
2023/11/19 02:58:53;;;;;;;7.13;2.40;;;14.00;99.90;;;;;;4978479;28;20429;-73
2023/11/19 03:01:29;;;;;;;7.57;2.67;;;14.00;99.90;;;;;;4977105;28;20480;-73
2023/11/19 03:03:58;;;;;;;11.30;2.93;;;14.00;99.90;;;;;;4978527;28;20943;-73
2023/11/19 03:06:27;;;;;;;9.97;2.50;;;14.00;99.90;;;;;;4977182;28;20858;-73
2023/11/19 03:08:56;;;;;;;12.70;2.80;;;14.00;99.90;;;;;;4977879;28;20484;-73
2023/11/19 03:11:24;;;;;;;10.93;3.03;;;14.00;99.90;;;;;;4978162;28;20516;-73
2023/11/19 03:13:51;;;;;;;7.37;2.63;;;14.00;99.90;;;;;;4977622;28;20989;-74
2023/11/19 03:16:18;;;;;;;11.30;2.87;;;14.00;99.90;;;;;;4976674;28;20963;-73
2023/11/19 03:18:45;;;;;;;8.83;2.03;;;14.00;99.90;;;;;;4977765;28;20453;-73
2023/11/19 03:21:14;;;;;;;12.13;3.00;;;14.00;99.90;;;;;;4977985;28;20445;-73
2023/11/19 03:23:41;;;;;;;7.23;2.90;;;14.10;99.90;;;;;;4977936;28;20544;-73
2023/11/19 03:26:09;;;;;;;6.80;2.13;;;14.10;99.90;;;;;;4977847;28;20445;-73
2023/11/19 03:28:35;;;;;;;6.10;2.77;;;14.10;99.90;;;;;;4989616;28;20457;-73
2023/11/19 03:31:08;;;;;;;14.60;3.80;;;14.10;99.90;;;;;;4982518;28;20536;-73
2023/11/19 03:33:34;;;;;;;9.93;3.17;;;14.10;99.90;;;;;;4981221;28;20460;-73
2023/11/19 03:36:01;;;;;;;11.27;2.80;;;14.20;99.90;;;;;;4979396;28;20445;-73
2023/11/19 03:38:29;;;;;;;11.93;2.57;;;14.20;99.90;;;;;;4978492;28;20448;-73
2023/11/19 03:40:56;;;;;;;15.73;2.77;;;14.10;99.90;;;;;;4978345;28;20999;-73
2023/11/19 03:43:23;;;;;;;11.00;2.43;;;14.10;99.90;;;;;;4976552;28;20848;-73
2023/11/19 03:45:49;;;;;;;13.80;2.90;;;14.10;99.90;;;;;;4977664;28;20515;-73
2023/11/19 03:48:17;;;;;;;11.73;3.37;;;14.10;99.90;;;;;;4977912;28;20504;-73
2023/11/19 03:50:43;;;;;;;12.53;3.00;;;14.10;99.90;;;;;;4976400;28;20499;-73
2023/11/19 03:53:10;;;;;;;15.03;4.10;;;14.10;99.90;;;;;;4977878;28;20503;-73
2023/11/19 03:55:38;;;;;;;16.27;3.43;;;14.10;99.90;;;;;;4979956;28;20500;-73
2023/11/19 03:58:05;;;;;;;14.23;3.43;;;14.10;99.90;;;;;;4977155;28;20452;-73
2023/11/19 04:00:32;;;;;;;13.63;2.80;;;14.00;99.90;;;;;;4976722;28;20469;-73
2023/11/19 04:03:00;;;;;;;18.27;3.73;;;14.00;99.90;;;;;;4977141;28;20457;-73
2023/11/19 04:05:26;;;;;;;11.67;3.43;;;14.00;99.90;;;;;;4976718;28;20511;-73
2023/11/19 04:07:53;;;;;;;11.40;2.90;;;13.90;99.90;;;;;;4975250;28;20449;-73
2023/11/19 04:10:20;;;;;;;13.03;3.13;;;13.90;99.90;;;;;;4976217;28;20473;-73
2023/11/19 04:12:48;;;;;;;11.40;2.83;;;13.80;99.90;;;;;;4976697;28;20536;-73
2023/11/19 04:15:15;;;;;;;14.97;3.53;;;13.70;99.90;;;;;;4976410;28;20496;-73
2023/11/19 04:17:42;;;;;;;8.10;2.87;;;13.70;99.90;;;;;;4976506;28;20935;-73
2023/11/19 04:20:13;;;;;;;11.33;3.40;;;13.70;99.90;;;;;;4976554;28;20480;-74
2023/11/19 04:22:41;;;;;;;10.20;2.90;;;13.70;99.90;;;;;;4975712;28;20469;-73
2023/11/19 04:25:09;;;;;;;11.23;2.97;;;13.70;99.90;;;;;;4976521;28;20445;-73
2023/11/19 04:27:36;;;;;;;10.47;3.00;;;13.70;99.90;;;;;;4976596;28;20456;-73
2023/11/19 04:30:10;;;;;;;6.70;2.70;;;13.60;99.90;;;;;;4976533;28;20524;-73
2023/11/19 04:32:37;;;;;;;11.17;3.27;;;13.70;99.90;;;;;;4976548;28;20469;-73
2023/11/19 04:35:05;;;;;;;14.20;3.13;;;13.60;99.90;;;;;;4974916;28;20872;-73
2023/11/19 04:37:31;;;;;;;15.93;3.07;;;13.60;99.90;;;;;;4976008;28;20890;-73
2023/11/19 04:39:59;;;;;;;13.93;3.57;;;13.60;99.90;;;;;;4976087;28;20464;-73
2023/11/19 04:42:27;;;;;;;11.43;3.17;;;13.60;99.90;;;;;;4976676;28;20445;-73
2023/11/19 04:44:54;;;;;;;15.90;4.87;;;13.60;99.90;;;;;;4975366;28;20446;-73
2023/11/19 04:47:22;;;;;;;16.60;3.40;;;13.60;99.90;;;;;;4981459;28;20575;-74
2023/11/19 04:49:49;;;;;;;14.13;2.87;;;13.50;99.90;;;;;;4982046;28;20462;-73
2023/11/19 04:52:16;;;;;;;15.23;3.10;;;13.60;99.90;;;;;;4980013;28;21013;-74
2023/11/19 04:54:43;;;;;;;9.40;2.47;;;13.60;99.90;;;;;;4980528;28;20459;-73
2023/11/19 04:57:10;;;;;;;15.10;3.80;;;13.50;99.90;;;;;;4980238;28;20496;-73
2023/11/19 04:59:37;;;;;;;14.13;3.00;;;13.60;99.90;;;;;;4978930;28;20473;-74
2023/11/19 05:02:04;;;;;;;10.43;3.13;;;13.60;99.90;;;;;;4962607;28;20472;-74
2023/11/19 05:04:33;;;;;;;13.27;2.97;;;13.60;99.90;;;;;;4977616;28;20815;-74
2023/11/19 05:06:59;;;;;;;14.77;3.87;;;13.60;99.90;;;;;;4977778;28;20460;-73
2023/11/19 05:09:26;;;;;;;10.97;3.37;;;13.60;99.90;;;;;;4976967;28;20528;-74
2023/11/19 05:11:53;;;;;;;20.33;3.90;;;13.60;99.90;;;;;;4975779;28;20505;-74
2023/11/19 05:14:21;;;;;;;20.03;3.30;;;13.60;99.90;;;;;;4976313;28;20457;-74
2023/11/19 05:16:48;;;;;;;10.63;3.13;;;13.50;99.90;;;;;;4975274;28;20959;-74
2023/11/19 05:19:15;;;;;;;13.57;2.93;;;13.60;99.90;;;;;;4976353;28;20465;-74
2023/11/19 05:21:44;;;;;;;20.67;3.00;;;13.60;99.90;;;;;;4976422;28;20493;-73
2023/11/19 05:24:11;;;;;;;14.40;3.23;;;13.50;99.90;;;;;;4976571;28;20835;-73
2023/11/19 05:26:38;;;;;;;11.50;3.33;;;13.50;99.90;;;;;;4976941;28;20496;-73
2023/11/19 05:29:05;;;;;;;13.70;3.40;;;13.50;99.90;;;;;;4976225;28;20484;-73
2023/11/19 05:31:32;;;;;;;16.30;3.30;;;13.50;99.90;;;;;;4976919;28;20485;-75
2023/11/19 05:33:59;;;;;;;13.30;3.50;;;13.50;99.90;;;;;;4976333;28;20454;-77
2023/11/19 05:36:25;;;;;;;17.23;3.60;;;13.40;99.90;;;;;;4974919;28;20453;-71
2023/11/19 05:38:54;;;;;;;13.67;2.90;;;13.40;99.90;;;;;;4975755;28;20457;-73
2023/11/19 05:41:20;;;;;;;9.83;3.43;;;13.30;99.90;;;;;;4975970;28;20448;-73
2023/11/19 05:43:47;;;;;;;16.47;2.97;;;13.40;99.90;;;;;;4976082;28;20467;-73
2023/11/19 05:46:14;;;;;;;17.90;3.57;;;13.40;99.90;;;;;;4980850;28;20438;-74
2023/11/19 05:48:42;;;;;;;15.90;3.33;;;13.30;99.90;;;;;;4985576;28;20444;-73
2023/11/19 05:51:09;;;;;;;17.80;4.20;;;13.30;99.90;;;;;;4979959;28;20545;-73
2023/11/19 05:53:36;;;;;;;21.53;3.37;;;13.30;99.90;;;;;;4977447;28;20989;-73
2023/11/19 05:56:04;;;;;;;14.40;3.20;;;13.30;99.90;;;;;;4976760;28;20469;-73
2023/11/19 05:58:32;;;;;;;15.73;3.80;;;13.30;99.90;;;;;;4976459;28;20935;-73
2023/11/19 06:01:00;;;;;;;13.07;2.90;;;13.30;99.90;;;;;;4974944;28;20453;-74
2023/11/19 06:03:27;;;;;;;17.60;4.13;;;13.30;99.90;;;;;;4977153;28;20452;-73
2023/11/19 06:05:56;;;;;;;18.03;3.80;;;13.30;99.90;;;;;;4976661;28;20445;-73
2023/11/19 06:08:23;;;;;;;21.77;5.67;;;13.20;99.90;;;;;;4975047;28;20456;-73
2023/11/19 06:10:51;;;;;;;16.93;3.57;;;13.10;99.90;;;;;;4975876;28;20469;-73
2023/11/19 06:13:19;;;;;;;17.43;4.50;;;13.20;99.90;;;;;;4977182;28;20491;-73
2023/11/19 06:15:46;;;;;;;20.77;4.20;;;13.10;99.90;;;;;;4978686;28;20967;-74
2023/11/19 06:18:14;;;;;;;21.10;4.40;;;13.10;99.90;;;;;;4979037;28;20449;-74
2023/11/19 06:20:43;;;;;;;19.37;3.70;;;13.10;99.90;;;;;;4978536;28;20986;-74
2023/11/19 06:23:10;;;;;;;20.60;4.00;;;13.10;99.90;;;;;;4979307;28;20476;-73
2023/11/19 06:25:37;;;;;;;18.10;3.20;;;13.00;99.90;;;;;;4978930;28;20513;-73
2023/11/19 06:28:05;;;;;;;18.60;4.40;;;13.00;99.90;;;;;;4979452;28;20453;-73
2023/11/19 06:30:33;;;;;;;22.33;4.57;;;13.00;99.90;;;;;;4979198;28;20504;-74
2023/11/19 06:33:00;;;;;;;18.67;3.53;;;13.10;99.90;;;;;;4985528;28;20488;-73
2023/11/19 06:35:27;;;;;;;17.70;3.77;;;13.00;99.90;;;;;;4980287;28;20452;-73
2023/11/19 06:37:54;;;;;;;16.47;4.50;;;13.00;99.90;;;;;;4980834;28;20502;-73
2023/11/19 06:40:21;;;;;;;14.23;3.27;;;12.90;99.90;;;;;;4979100;28;20484;-73
2023/11/19 06:42:48;;;;;;;17.83;4.03;;;13.00;99.90;;;;;;4978936;28;20832;-73
2023/11/19 06:45:15;;;;;;;12.40;3.60;;;12.90;99.90;;;;;;4978817;28;20953;-73
2023/11/19 06:47:43;;;;;;;21.93;4.30;;;12.90;99.90;;;;;;4979119;28;20480;-73
2023/11/19 06:50:12;;;;;;;20.00;4.03;;;12.90;99.90;;;;;;4979270;28;20485;-73
2023/11/19 06:52:40;;;;;;;21.00;4.77;;;12.90;99.90;;;;;;4979125;28;20865;-73
2023/11/19 06:55:08;;;;;;;24.47;5.03;;;12.90;99.90;;;;;;4977725;28;20456;-73
2023/11/19 06:57:34;;;;;;;18.40;4.47;;;12.80;99.90;;;;;;4978915;28;20460;-73
2023/11/19 07:00:01;;;;;;;24.73;3.90;;;12.90;99.90;;;;;;4978730;28;20469;-73
2023/11/19 07:02:28;;;;;;;17.90;3.80;;;12.90;99.90;;;;;;4978400;28;20809;-73
2023/11/19 07:05:00;;;;;;;20.73;3.57;;;12.90;99.90;;;;;;4978396;28;20532;-73
2023/11/19 07:07:27;;;;;;;18.93;4.37;;;12.90;99.90;;;;;;4977876;28;20473;-73
2023/11/19 07:09:55;;;;;;;18.43;4.70;;;12.90;99.90;;;;;;4978247;28;20582;-73
2023/11/19 07:12:22;;;;;;;27.70;4.53;;;12.90;99.90;;;;;;4978252;28;20492;-73
2023/11/19 07:14:48;;;;;;;23.60;5.47;;;12.90;99.90;;;;;;4976888;28;20461;-73
2023/11/19 07:17:15;;;;;;;20.30;4.33;;;12.90;99.90;;;;;;4978462;28;20457;-73
2023/11/19 07:19:42;;;;;;;23.97;3.93;;;12.90;99.90;;;;;;4977836;28;20987;-73
2023/11/19 07:22:11;;;;;;;16.30;4.00;;;12.80;99.90;;;;;;4977861;28;20461;-73
2023/11/19 07:24:40;;;;;;;23.13;4.80;;;12.90;99.90;;;;;;4976967;28;20453;-73
2023/11/19 07:27:08;;;;;;;17.07;3.97;;;12.80;99.90;;;;;;4977743;28;20551;-73
2023/11/19 07:29:35;;;;;;;28.23;5.53;;;12.80;99.90;;;;;;4976352;28;20480;-73
2023/11/19 07:32:02;;;;;;;17.23;3.60;;;12.80;99.90;;;;;;4977478;28;21070;-73
2023/11/19 07:34:29;;;;;;;20.20;4.00;;;12.80;99.90;;;;;;4978042;28;20452;-73
2023/11/19 07:36:59;;;;;;;24.90;4.20;;;12.90;99.90;;;;;;4978293;28;20445;-73
2023/11/19 07:39:27;;;;;;;16.93;3.80;;;12.80;99.90;;;;;;4977917;28;20481;-74
2023/11/19 07:41:54;;;;;;;15.93;3.83;;;12.80;99.90;;;;;;4977212;28;20441;-73
2023/11/19 07:44:22;;;;;;;20.00;4.70;;;12.80;99.90;;;;;;4978105;28;20536;-73
2023/11/19 07:46:48;;;;;;;15.27;3.70;;;12.80;99.90;;;;;;4977767;28;20869;-73
2023/11/19 07:49:15;;;;;;;14.80;3.73;;;12.80;99.90;;;;;;4977673;28;20504;-73
2023/11/19 07:51:42;;;;;;;15.07;3.40;;;12.80;99.90;;;;;;4977419;28;20450;-73
2023/11/19 07:54:10;;;;;;;18.60;4.90;;;12.90;99.90;;;;;;4977387;28;20520;-73
2023/11/19 07:56:39;;;;;;;28.00;4.47;;;12.90;99.90;;;;;;4977314;28;20832;-74
2023/11/19 07:59:06;;;;;;;15.50;3.93;;;12.90;99.90;;;;;;4977454;28;20990;-74
2023/11/19 08:01:33;;;;;;;19.03;4.63;;;12.90;99.90;;;;;;4988962;28;20453;-73
2023/11/19 08:04:01;;;;;;;17.70;4.40;;;13.00;99.90;;;;;;4982614;28;20449;-73
2023/11/19 08:06:27;;;;;;;16.43;3.53;;;13.00;99.90;;;;;;4980445;28;20820;-73
2023/11/19 08:08:54;;;;;;;21.80;4.50;;;13.00;99.90;;;;;;4977879;28;20479;-73
2023/11/19 08:11:21;;;;;;;22.47;4.30;;;13.00;99.90;;;;;;4978302;28;20354;-73
2023/11/19 08:13:49;;;;;;;15.73;4.03;;;13.10;99.90;;;;;;4977337;28;20507;-73
2023/11/19 08:16:16;;;;;;;26.87;6.07;;;13.10;99.90;;;;;;4977614;28;20430;-73
2023/11/19 08:18:44;;;;;;;23.07;4.33;;;13.10;99.90;;;;;;4977845;28;20460;-73
2023/11/19 08:21:11;;;;;;;17.20;4.50;;;13.10;99.90;;;;;;4977079;28;20469;-73
2023/11/19 08:23:39;;;;;;;18.07;4.63;;;13.10;99.90;;;;;;4977339;28;20460;-74
2023/11/19 08:26:06;;;;;;;20.63;3.70;;;13.10;99.90;;;;;;4977732;28;20528;-74
2023/11/19 08:28:34;;;;;;;16.83;4.13;;;13.10;99.90;;;;;;4977902;28;20883;-73
2023/11/19 08:31:05;;;;;;;19.70;4.07;;;13.10;99.90;;;;;;4976266;28;20454;-74
2023/11/19 08:33:32;;;;;;;27.10;4.30;;;13.20;99.90;;;;;;4976275;28;20473;-73
2023/11/19 08:35:59;;;;;;;26.63;5.53;;;13.20;99.90;;;;;;4978720;28;20441;-73
2023/11/19 08:38:26;;;;;;;21.30;4.10;;;13.20;99.90;;;;;;4977413;28;20884;-73
2023/11/19 08:40:53;;;;;;;21.23;3.60;;;13.20;99.90;;;;;;4977912;28;20524;-73
2023/11/19 08:43:19;;;;;;;23.27;5.20;;;13.30;99.90;;;;;;4976999;28;20445;-73
2023/11/19 08:45:46;;;;;;;20.30;5.50;;;13.30;99.90;;;;;;4976744;28;20911;-73
2023/11/19 08:48:16;;;;;;;24.97;4.43;;;13.40;99.90;;;;;;4977121;28;20458;-72
2023/11/19 08:50:42;;;;;;;26.93;5.50;;;13.40;99.90;;;;;;4977203;28;20846;-73
2023/11/19 08:53:09;;;;;;;16.83;4.33;;;13.40;99.90;;;;;;4977483;28;20483;-73
2023/11/19 08:55:36;;;;;;;22.60;4.90;;;13.40;99.90;;;;;;4976799;28;20459;-73
2023/11/19 08:58:03;;;;;;;20.13;4.17;;;13.50;99.90;;;;;;4977066;28;20456;-73
2023/11/19 09:00:32;;;;;;;20.10;4.40;;;13.50;99.90;;;;;;4976698;28;20470;-74
2023/11/19 09:03:00;;;;;;;20.50;5.00;;;13.50;99.90;;;;;;4976457;28;20512;-73
2023/11/19 09:05:28;;;;;;;15.50;4.00;;;13.60;99.90;;;;;;4978510;28;20449;-73
2023/11/19 09:07:55;;;;;;;14.73;3.80;;;13.50;99.90;;;;;;4977325;28;20448;-73
2023/11/19 09:10:21;;;;;;;17.80;4.43;;;13.60;99.90;;;;;;4976649;28;20473;-72
2023/11/19 09:12:50;;;;;;;24.60;4.73;;;13.60;99.90;;;;;;4977229;28;20487;-73
2023/11/19 09:15:16;;;;;;;16.30;4.50;;;13.60;99.90;;;;;;4980887;28;20843;-73
2023/11/19 09:17:45;;;;;;;17.77;3.90;;;13.60;99.90;;;;;;4979736;28;20818;-73
2023/11/19 09:20:15;;;;;;;16.43;4.60;;;13.60;99.90;;;;;;4980393;28;20477;-73
2023/11/19 09:22:43;;;;;;;21.13;4.47;;;13.70;99.90;;;;;;4975988;28;20955;-72
2023/11/19 09:25:10;;;;;;;21.73;4.47;;;13.80;99.90;;;;;;4975583;28;20471;-72
2023/11/19 09:27:37;;;;;;;21.70;4.90;;;13.80;99.90;;;;;;4975234;28;21014;-73
2023/11/19 09:30:04;;;;;;;18.10;3.60;;;13.80;99.90;;;;;;4975457;28;20975;-73
2023/11/19 09:32:31;;;;;;;17.20;4.63;;;13.80;99.90;;;;;;4975117;28;20495;-73
2023/11/19 09:34:58;;;;;;;24.17;4.87;;;13.80;99.90;;;;;;4974244;28;20445;-73
2023/11/19 09:37:24;;;;;;;20.43;4.93;;;13.80;99.90;;;;;;4974801;28;20456;-73
2023/11/19 09:39:53;;;;;;;25.10;3.50;;;13.80;99.90;;;;;;4974569;28;20461;-73
2023/11/19 09:42:21;;;;;;;16.30;4.60;;;13.90;99.90;;;;;;4974915;28;20449;-73
2023/11/19 09:44:49;;;;;;;27.20;4.40;;;13.90;99.90;;;;;;4974885;28;20943;-73
2023/11/19 09:47:20;;;;;;;19.70;4.37;;;14.00;99.90;;;;;;4974687;28;20805;-74
2023/11/19 09:49:47;;;;;;;22.60;3.80;;;14.00;99.80;;;;;;4974840;28;20476;-73
2023/11/19 09:52:14;;;;;;;24.27;4.30;;;14.10;99.90;;;;;;4975227;28;20572;-74
2023/11/19 09:54:43;;;;;;;18.50;4.37;;;14.20;99.90;;;;;;4973130;28;20464;-73
2023/11/19 09:57:17;;;;;;;17.33;3.90;;;14.40;99.90;;;;;;4974563;28;20445;-74
2023/11/19 09:59:45;;;;;;;21.27;4.50;;;14.50;99.70;;;;;;4974660;28;20580;-73
2023/11/19 10:02:13;;;;;;;20.43;4.57;;;14.50;99.40;;;;;;4974904;28;20452;-74
2023/11/19 10:04:42;;;;;;;16.60;4.20;;;14.40;98.90;;;;;;4974513;28;20448;-73
2023/11/19 10:07:09;;;;;;;18.53;4.07;;;14.30;99.10;;;;;;4973294;28;20448;-74
2023/11/19 10:09:37;;;;;;;20.87;4.37;;;14.40;99.30;;;;;;4974454;28;20469;-73
2023/11/19 10:12:05;;;;;;;13.43;3.70;;;14.40;99.40;;;;;;4985229;28;20857;-73
2023/11/19 10:14:37;;;;;;;14.80;3.90;;;14.60;99.50;;;;;;4977912;28;20552;-74
2023/11/19 10:17:04;;;;;;;15.97;3.50;;;14.60;98.40;;;;;;4976124;28;20429;-73
2023/11/19 10:19:35;;;;;;;17.03;3.60;;;14.70;98.70;;;;;;4974736;28;20480;-73
2023/11/19 10:22:05;;;;;;;18.80;4.00;;;14.70;98.10;;;;;;4974406;28;20461;-73
2023/11/19 10:24:34;;;;;;;26.77;4.90;;;14.80;98.30;;;;;;4974326;28;20452;-73
2023/11/19 10:27:02;;;;;;;22.77;5.50;;;14.80;97.80;;;;;;4974609;28;20477;-74
2023/11/19 10:29:30;;;;;;;19.43;5.53;;;15.00;97.80;;;;;;4974760;28;20865;-74
2023/11/19 10:31:59;;;;;;;17.10;3.60;;;15.00;97.60;;;;;;4974913;28;20457;-74
2023/11/19 10:34:27;;;;;;;15.10;3.63;;;15.00;97.00;;;;;;4974220;28;20847;-74
2023/11/19 10:36:54;;;;;;;13.80;4.67;;;15.00;96.90;;;;;;4974137;28;20460;-74
2023/11/19 10:39:24;;;;;;;19.63;4.00;;;15.00;96.50;;;;;;4974554;28;20473;-73
2023/11/19 10:41:51;;;;;;;23.57;3.57;;;15.00;97.00;;;;;;4974328;28;20665;-73
2023/11/19 10:44:33;;;;;;;16.70;3.63;;;15.10;96.70;;;;;;4974097;28;20927;-74
2023/11/19 10:47:01;;;;;;;19.63;4.50;;;15.10;96.70;;;;;;4974566;28;20429;-73
2023/11/19 10:49:28;;;;;;;18.73;3.43;;;15.10;96.30;;;;;;4974512;28;20477;-73
2023/11/19 10:52:00;;;;;;;13.53;3.93;;;15.20;96.10;;;;;;4974024;28;20460;-74
2023/11/19 10:54:27;;;;;;;27.40;4.00;;;15.30;96.00;;;;;;4974117;28;20920;-74
2023/11/19 10:56:58;;;;;;;17.50;4.20;;;15.20;95.20;;;;;;4974020;28;20815;-78
2023/11/19 10:59:25;;;;;;;16.27;3.97;;;15.10;95.90;;;;;;4976171;28;20464;-74
2023/11/19 11:01:55;;;;;;;14.83;4.00;;;15.00;96.10;;;;;;4977547;28;20819;-74
2023/11/19 11:04:27;;;;;;;15.80;3.10;;;15.00;96.60;;;;;;4976386;28;20814;-74
2023/11/19 11:06:59;;;;;;;13.60;3.80;;;14.90;96.80;;;;;;4977650;28;20487;-74
2023/11/19 11:09:27;;;;;;;14.23;3.10;;;14.80;97.20;;;;;;4976166;28;20476;-73
2023/11/19 11:11:57;;;;;;;11.13;3.03;;;14.80;97.40;;;;;;4976494;28;20900;-73
2023/11/19 11:14:26;;;;;;;16.17;3.57;;;15.00;97.50;;;;;;4977179;28;20489;-74
2023/11/19 11:16:54;;;;;;;13.03;2.83;;;15.30;97.00;;;;;;4975629;28;20489;-72
2023/11/19 11:19:21;;;;;;;17.00;3.50;;;15.60;95.90;;;;;;4976361;28;20473;-72
2023/11/19 11:21:52;;;;;;;13.73;4.03;;;15.90;95.60;;;;;;4977565;28;20888;-72
2023/11/19 11:24:58;;;;;;;14.70;4.40;;;16.10;94.60;;;;;;4978660;28;20537;-71
2023/11/19 11:27:48;;;;;;;18.97;3.40;;;16.20;93.90;;;;;;4934662;28;20488;-72
2023/11/19 11:30:25;;;;;;;20.27;3.90;;;16.40;93.50;;;;;;4977242;28;20457;-71
2023/11/19 11:32:59;;;;;;;9.20;3.13;;;16.50;92.90;;;;;;4978660;28;20435;-72
2023/11/19 11:35:36;;;;;;;15.70;3.53;;;16.70;91.70;;;;;;4977611;28;20528;-73
2023/11/19 11:38:07;;;;;;;17.20;3.60;;;16.60;91.10;;;;;;4977299;28;20508;-72
2023/11/19 11:40:35;;;;;;;9.77;3.37;;;16.50;91.20;;;;;;4976797;28;20515;-71
2023/11/19 11:43:03;;;;;;;20.73;3.93;;;16.50;90.90;;;;;;4977127;28;20817;-73
2023/11/19 11:45:42;;;;;;;16.63;2.80;;;16.50;90.50;;;;;;4975643;28;20870;-73
2023/11/19 11:48:14;;;;;;;13.83;4.20;;;16.40;91.20;;;;;;4977073;28;20476;-72
2023/11/19 11:50:58;;;;;;;14.73;3.50;;;16.30;91.40;;;;;;4976467;28;20480;-72
2023/11/19 11:53:27;;;;;;;15.00;3.20;;;16.30;91.60;;;;;;4976080;28;20576;-72
2023/11/19 11:55:59;;;;;;;17.47;3.40;;;16.20;91.40;;;;;;4976974;28;20463;-72
2023/11/19 11:58:30;;;;;;;14.53;3.53;;;16.00;91.70;;;;;;4978309;28;20437;-72
2023/11/19 12:00:59;;;;;;;11.80;3.60;;;16.00;92.50;;;;;;4977059;28;20469;-72
2023/11/19 12:03:28;;;;;;;13.93;3.70;;;16.10;92.50;;;;;;4976592;28;20448;-72
2023/11/19 12:05:57;;;;;;;13.10;3.57;;;16.00;91.90;;;;;;4976552;28;20441;-72
2023/11/19 12:08:28;;;;;;;13.77;3.17;;;15.90;92.70;;;;;;4974724;28;20457;-72
2023/11/19 12:10:58;;;;;;;17.43;3.00;;;15.80;92.80;;;;;;4975412;28;20492;-72
2023/11/19 12:13:30;;;;;;;22.37;4.20;;;15.90;93.50;;;;;;4975703;28;20465;-73
2023/11/19 12:16:09;;;;;;;15.47;3.30;;;16.10;92.80;;;;;;4975973;28;20453;-72
2023/11/19 12:18:36;;;;;;;16.30;4.07;;;16.20;92.50;;;;;;4976009;28;20469;-71
2023/11/19 12:21:05;;;;;;;15.37;3.70;;;16.40;92.20;;;;;;4976187;28;20481;-72
2023/11/19 12:23:34;;;;;;;16.77;3.80;;;16.40;92.20;;;;;;4985731;28;20976;-72
2023/11/19 12:26:01;;;;;;;16.70;3.50;;;16.30;92.60;;;;;;4980143;28;20449;-72
2023/11/19 12:28:27;;;;;;;14.27;3.60;;;16.00;92.50;;;;;;4983335;28;20450;-68
2023/11/19 12:30:54;;;;;;;17.93;3.13;;;15.80;94.30;;;;;;4983905;28;20473;-68
2023/11/19 12:33:21;;;;;;;12.10;4.30;;;15.50;95.50;;;;;;4983812;28;20508;-67
2023/11/19 12:35:49;;;;;;;23.03;3.90;;;15.30;97.40;;;;;;4984048;28;20482;-69
2023/11/19 12:38:23;;;;;;;14.97;3.40;;;15.20;98.40;;;;;;4982593;28;20965;-70
2023/11/19 12:41:05;;;;;;;12.53;3.30;;;15.20;98.60;;;;;;4981136;28;20979;-70
2023/11/19 12:43:34;;;;;;;15.93;4.07;;;15.30;98.00;;;;;;4981827;28;20430;-71
2023/11/19 12:46:01;;;;;;;9.63;4.20;;;15.70;97.20;;;;;;4978648;28;20465;-72